Terminal Aerodrome Forecast
Issued by NWS Greer, SC

Home | Current Version | Previous Version | Text Only | Print | Product List | Glossary On
Versions: 1 2 3 4 5 6 7 8 9 10 11 12 13 14 15 16 17 18 19 20 21 22 23 24 25 26 27 28 29 30
408
FTUS42 KGSP 272244 AAA
TAFAVL
TAF AMD
KAVL 272244Z 2723/2818 22005KT P6SM SCT035
      TEMPO 2723/2803 20013KT -TSRA BKN035CB
     FM280300 30003KT P6SM SCT035 BKN250
     FM281000 31003KT 4SM BR VCTS SCT070CB
     FM281300 29005KT P6SM SCT070 SCT250 PROB30 2814/2816 4SM -TSRA
      BKN250CB=

USA.gov is the U.S. government's official web portal to all federal, state and local government web resources and services.